Flight Track Log - Related Links

Times and Time Zones

All times are in EDT time to prevent confusion due to time zone crossing. See the RPA3159 flight status page for this flight to view local times or setup timezone preferences in your user account.

Time Position Orientation Groundspeed Altitude Reporting Facility
EDT Latitude Longitude Course Direction KTS MPH feet Rate Location/Type
Wed 11:49:49 44.2631 -73.1850 198° South 294 338 8,800  Level Boston Center
Wed 11:50:00 44.0234 -73.3144 194° South  Level FlightAware Approximate
Wed 11:50:46 44.1794 -73.2303 201° Southwest 301 346 11,600  Level Boston Center
Wed 11:51:00 43.9339 -73.3443 193° South  Level FlightAware Approximate
Wed 11:51:46 44.1019 -73.2958 211° Southwest 318 366 14,100  Level Boston Center
Wed 11:52:00 43.8375 -73.3798 195° South  Level FlightAware Approximate
Wed 11:52:47 44.0242 -73.3669 213° Southwest 337 388 16,400  Level Boston Center
Wed 11:53:00 43.7412 -73.4159 195° South  Level FlightAware Approximate
Wed 11:53:47 43.9403 -73.4406 212° Southwest 356 410 18,600  Level Boston Center
Wed 11:54:00 43.6450 -73.4523 198° South  Level FlightAware Approximate
Wed 11:54:48 43.8583 -73.5142 213° Southwest 356 410 21,100  Level Boston Center
Wed 11:55:00 43.5502 -73.4954 198° South  Level FlightAware Approximate
Wed 11:55:48 43.7742 -73.5872 212° Southwest 356 410 23,300  Level Boston Center
Wed 11:56:46 43.6881 -73.6633 213° Southwest 361 415 25,200 1,780 Climbing Boston Center
Wed 11:57:46 43.6103 -73.7333 213° Southwest 367 422 26,800 1,388 Climbing Boston Center
Wed 11:58:47 43.5239 -73.8117 213° Southwest 372 428 28,000 595 Climbing Boston Center
Wed 11:59:47 43.4333 -73.8897 212° Southwest 377 434 28,000  Level Boston Center
Wed 12:00:47 43.3447 -73.9647 212° Southwest 377 434 28,000  Level Boston Center
Wed 12:01:49 43.2456 -74.0478 211° Southwest 383 441 28,000  Level Boston Center
Wed 12:02:46 43.1653 -74.1194 213° Southwest 383 441 28,000  Level Boston Center
Wed 12:03:47 43.0683 -74.2050 213° Southwest 383 441 28,000  Level Boston Center
Wed 12:04:48 42.9900 -74.2708 212° Southwest 383 441 28,000 -403 Level Boston Center
Wed 12:05:46 42.8908 -74.3558 212° Southwest 383 441 27,200 -1,017 Descending Boston Center
Wed 12:06:46 42.8081 -74.4297 213° Southwest 389 448 26,000 -595 Descending Boston Center
Wed 12:07:47 42.7364 -74.4867 210° Southwest 389 448 26,000  Level Boston Center
Wed 12:08:47 42.6283 -74.5819 213° Southwest 394 453 26,000  Level Boston Center
Wed 12:09:47 42.5286 -74.6631 211° Southwest 394 453 26,000 -198 Level Boston Center
Wed 12:10:48 42.4481 -74.7333 213° Southwest 394 453 25,600 -942 Descending Boston Center
Wed 12:11:48 42.3442 -74.8222 212° Southwest 401 461 24,100 -823 Descending Boston Center
Wed 12:13:43 42.1697 -74.9681 212° Southwest 408 470 23,200 -994 Descending New York Center
Wed 12:14:43 42.0753 -75.0458 211° Southwest 408 470 21,200 -2,066 Descending New York Center
Wed 12:15:45 41.9767 -75.1286 212° Southwest 396 456 19,000 -1,109 Descending New York Center
Wed 12:16:42 41.8867 -75.2006 211° Southwest 390 449 19,000  Level New York Center
Wed 12:17:42 41.7944 -75.2725 210° Southwest 390 449 19,000 -545 Level New York Center
Wed 12:18:43 41.7147 -75.3392 212° Southwest 390 449 17,900 -1,525 Descending New York Center
Wed 12:19:44 41.6244 -75.4108 211° Southwest 385 443 15,900 -2,168 Descending New York Center
Wed 12:20:42 41.5278 -75.4872 211° Southwest 380 437 13,600 -1,983 Descending New York Center
Wed 12:21:42 41.4458 -75.5533 211° Southwest 367 422 12,000 -787 Descending New York Center
Wed 12:22:44 41.3642 -75.6194 211° Southwest 357 411 12,000  Level New York Center
Wed 12:23:44 41.2889 -75.6775 210° Southwest 352 405 12,000  Level New York Center
Wed 12:24:42 41.1947 -75.6900 186° South 338 389 12,000  Level New York Center
Wed 12:25:42 41.0989 -75.6886 179° South 348 400 12,000  Level New York Center
Wed 12:26:43 41.0011 -75.6869 179° South 354 407 12,000  Level New York Center
Wed 12:27:44 40.9008 -75.6881 180° South 359 413 12,000  Level New York Center
Wed 12:28:44 40.7986 -75.6450 162° South 352 405 12,000  Level New York Center
Wed 12:29:42 40.7092 -75.5892 155° Southeast 352 405 12,000  Level New York Center
Wed 12:30:43 40.6278 -75.5397 155° Southeast 358 412 12,000 -295 Level New York Center
Wed 12:31:44 40.5403 -75.4872 155° Southeast 353 406 11,400 -1,008 Descending New York Center
Wed 12:32:42 40.4506 -75.4347 156° South 332 382 10,000 -1,311 Descending New York Center
Wed 12:33:43 40.3772 -75.3917 156° South 310 357 8,800 -1,230 Descending New York Center
Wed 12:34:44 40.3122 -75.3519 155° Southeast 292 336 7,500 -1,240 Descending New York Center
Wed 12:35:44 40.2408 -75.3119 157° South 287 330 6,300 -763 Descending New York Center
Wed 12:36:42 40.1675 -75.2664 155° Southeast 292 336 6,000 -153 Descending New York Center
Wed 12:37:42 40.1033 -75.2025 143° Southeast 277 319 6,000  Level New York Center
Wed 12:38:36 40.0667 -75.1500 132° Southeast 217 250 6,000  Level Philadelphia TRACON
Wed 12:39:36 40.0167 -75.1000 143° Southeast 213 245 6,000  Level Philadelphia TRACON
Wed 12:40:36 40.0000 -75.0333 108° East 200 230 6,000 -350 Level Philadelphia TRACON
Wed 12:41:36 40.0167 -74.9667 72° East 195 224 5,300 -1,000 Descending Philadelphia TRACON
Wed 12:42:36 39.9833 -74.9333 143° Southeast 178 205 4,000 -1,150 Descending Philadelphia TRACON
Wed 12:43:36 39.9500 -74.9333 180° South 182 209 3,000 -500 Descending Philadelphia TRACON
Wed 12:44:36 39.9167 -75.0000 237° Southwest 177 204 3,000 -200 Level Philadelphia TRACON
Wed 12:45:36 39.9167 -75.0500 270° West 174 200 2,600 -650 Descending Philadelphia TRACON
Wed 12:46:36 39.9000 -75.1167 252° West 175 201 1,700 -800 Descending Philadelphia TRACON
Wed 12:47:36 39.8833 -75.1667 247° West 131 151 1,000 -700 Descending Philadelphia TRACON
Wed 12:48:36 39.8833 -75.2167 270° West 134 154 300 -700 Descending Philadelphia TRACON

Login

Don't have an account? Register now (free) for customized features, flight alerts, and more!